KBTL/BTL METAR and TAF weather

Enter ICAO airport designator
Station Type Date Time Source
KBTL METAR 2021/07/30 05:53 UTC NOAA

KBTL 300553Z AUTO 35003KT 10SM CLR 19/15 A3003 RMK AO2 SLP164 T01890150 10256 20183 52020


Station Type Date Time Source
KBTL Decoded METAR 2021/07/30 05:53 UTC NOAA

W.K.KELLOGG REGIONAL AIRPORT, MI, United States (KBTL) 42-18N 085-15W 290M
Jul 30, 2021 - 01:53 AM EDT / 2021.07.30 0553 UTC
Wind: from the N (350 degrees) at 3 MPH (3 KT):0
Visibility: 10 mile(s):0
Sky conditions: clear
Temperature: 66.0 F (18.9 C)
Dew Point: 59.0 F (15.0 C)
Relative Humidity: 78%
Pressure (altimeter): 30.03 in. Hg (1016 hPa)
Pressure tendency: 0.06 inches (2.0 hPa) higher than three hours ago
ob: KBTL 300553Z AUTO 35003KT 10SM CLR 19/15 A3003 RMK AO2 SLP164 T01890150 10256 20183 52020
cycle: 6

Station Type Date Time Source
KBTL TAF 2021/07/30 06:42 UTC NOAA

TAF KBTL 300540Z 3006/3106 36007KT P6SM FEW030 FEW250
FM301600 35008KT P6SM SCT040 SCT250
FM310000 VRB03KT P6SM SCT250

Example: see airport list